Lake George, NY (12845)

11:05 AM EST on December 27, 2014 (GMT -0500)
Mohawk Mountain Road, Lake George, NY | Change Station
CLOSE
Current Station
Personal Weather Station
Location: Lake George, NY
Elevation: 942 ft
Nearby Weather Stations

Elev 942 ft 43.39 °N, 73.73 °W | Updated 1 minute ago

Overcast
Overcast
36.6 °F
Feels Like 31 °F
N
7.0
Wind Variable Wind from NNE

Today
High -- | Low -- °F
--% Chance of Precip.
Yesterday
High -- | Low -- °F
Precip. -- in
7:26 AM 4:25 PM
Waxing Crescent, 37% visible
Pressure 30.24 in
Visibility 8.0 miles
Clouds Overcast 3700 ft
Windchill 31 °F
Dew Point 32 °F
Humidity 82%
Rainfall 0.00 in
Snow Depth Not available.
UV 1 out of 12
Pollen .10 out of 12
Air Quality Not available.
Flu Activity Not available.
METAR KGFL 271553Z AUTO 00000KT 8SM OVC037 02/M01 A3021 RMK AO2 SLP239 T00221011

More Conditions Fewer Conditions

Pressure 30.24 in
Visibility 8.0 miles
Clouds Overcast 3700 ft
Windchill 31 °F
Dew Point 32 °F
Humidity 82%
Rainfall 0.00 in
Snow Depth Not available.
UV 1 out of 12
Pollen .10 out of 12
Air Quality Not available.
Flu Activity Not available.
METAR KGFL 271553Z AUTO 00000KT 8SM OVC037 02/M01 A3021 RMK AO2 SLP239 T00221011

More Conditions Fewer Conditions

10-Day Weather Forecast

Almanac

Astronomy

Dec. 27, 2014 Rise Set
Actual Time
Civil Twilight
Nautical Twilight
Astronomical Twilight
Moon
Length of Visible Light
Length of Day
Tomorrow will be .
, % of the Moon is Illuminated

Today's Extremes

State Highs State Lows

Community

WunderPhotos

Upload Photos

1,780,942 photos uploaded!

WunderBlogs® & News

Nearby

Air Quality

  Air Quality AQ Index Pollutant
Not available.

Snow Depth

Station Depth Elevation

Earthquake Activity

City Distance Mag. Time & Date
Minimum magnitude displayed is 2.5.

Coastal Water Temperatures

Place Temperature

Nearby Weather Stations